createdAt,value
2022-10-09T00:01:07.366Z,77.40
2022-10-09T00:03:35.319Z,77.80
2022-10-09T00:06:03.052Z,77.70
2022-10-09T00:08:30.297Z,77.60
2022-10-09T00:10:57.495Z,77.60
2022-10-09T00:13:24.427Z,77.60
2022-10-09T00:15:51.385Z,77.60
2022-10-09T00:18:19.036Z,77.70
2022-10-09T00:20:47.017Z,77.80
2022-10-09T00:23:16.606Z,77.90
2022-10-09T00:25:55.837Z,77.90
2022-10-09T00:28:24.265Z,77.80
2022-10-09T00:30:51.687Z,77.80
2022-10-09T00:33:19.725Z,77.90
2022-10-09T00:35:47.151Z,78.70
2022-10-09T00:38:14.321Z,77.80
2022-10-09T00:40:41.828Z,77.90
2022-10-09T00:43:19.036Z,77.80
2022-10-09T00:45:54.476Z,77.80
2022-10-09T00:48:22.918Z,77.80
2022-10-09T00:50:57.798Z,77.70
2022-10-09T00:53:28.269Z,77.70
2022-10-09T00:55:55.404Z,77.80
2022-10-09T00:58:23.667Z,77.90
2022-10-09T01:00:50.990Z,78.70
2022-10-09T01:03:18.075Z,77.80
2022-10-09T01:06:08.980Z,78.00
2022-10-09T01:08:49.618Z,77.90
2022-10-09T01:11:56.366Z,77.90
2022-10-09T01:14:28.522Z,77.90
2022-10-09T01:17:24.085Z,77.90
2022-10-09T01:20:23.178Z,77.90
2022-10-09T01:23:03.697Z,77.90
2022-10-09T01:25:35.330Z,78.00
2022-10-09T01:28:04.778Z,77.90
2022-10-09T01:30:32.863Z,77.90
2022-10-09T01:33:00.766Z,78.00
2022-10-09T01:35:29.113Z,78.20
2022-10-09T01:37:57.200Z,78.20
2022-10-09T01:40:26.576Z,78.30
2022-10-09T01:42:54.780Z,78.30
2022-10-09T01:45:23.961Z,78.30
2022-10-09T01:47:50.886Z,78.30
2022-10-09T01:50:32.711Z,78.30
2022-10-09T01:53:07.476Z,78.30
2022-10-09T01:55:43.508Z,78.30
2022-10-09T01:58:35.552Z,78.30
2022-10-09T02:01:10.975Z,78.20
2022-10-09T02:03:41.718Z,78.20
2022-10-09T02:06:11.235Z,78.30
2022-10-09T02:08:40.172Z,78.30
2022-10-09T02:11:07.557Z,78.30
2022-10-09T02:13:35.924Z,78.30
2022-10-09T02:16:24.992Z,78.30
2022-10-09T02:19:04.144Z,78.30
2022-10-09T02:21:50.313Z,78.30
2022-10-09T02:24:21.645Z,78.40
2022-10-09T02:26:49.531Z,78.30
2022-10-09T02:29:17.458Z,78.30
2022-10-09T02:31:44.766Z,78.30
2022-10-09T02:34:16.495Z,78.30
2022-10-09T02:36:43.447Z,78.30
2022-10-09T02:39:10.484Z,78.40
2022-10-09T02:41:37.640Z,78.50
2022-10-09T02:44:06.211Z,78.40
2022-10-09T02:46:33.867Z,78.50
2022-10-09T02:49:00.939Z,78.40
2022-10-09T02:51:28.065Z,78.40
2022-10-09T02:53:55.992Z,78.70
2022-10-09T02:56:23.808Z,78.70
2022-10-09T02:58:50.587Z,78.70
2022-10-09T03:01:18.233Z,78.60
2022-10-09T03:03:45.976Z,78.90
2022-10-09T03:06:14.605Z,78.80
2022-10-09T03:08:43.801Z,78.70
2022-10-09T03:11:12.334Z,79.10
2022-10-09T03:13:39.811Z,79.00
2022-10-09T03:16:11.836Z,78.80
2022-10-09T03:18:39.453Z,78.80
2022-10-09T03:21:11.425Z,78.80
2022-10-09T03:23:38.811Z,78.80
2022-10-09T03:26:08.331Z,79.00
2022-10-09T03:28:40.486Z,78.90
2022-10-09T03:31:08.275Z,78.90
2022-10-09T03:33:35.968Z,78.90
2022-10-09T03:36:04.426Z,78.80
2022-10-09T03:38:31.438Z,79.00
2022-10-09T03:40:59.857Z,78.90
2022-10-09T03:43:27.006Z,78.90
2022-10-09T03:45:53.948Z,78.90
2022-10-09T03:48:21.541Z,79.80
2022-10-09T03:50:49.021Z,78.80
2022-10-09T03:53:17.779Z,78.90
2022-10-09T03:55:45.043Z,78.90
2022-10-09T03:58:12.029Z,78.90
2022-10-09T04:00:39.413Z,78.90
2022-10-09T04:03:06.320Z,78.90
2022-10-09T04:05:34.803Z,78.90
2022-10-09T04:08:01.903Z,78.90
2022-10-09T04:10:29.020Z,78.90
2022-10-09T04:12:56.142Z,78.80
2022-10-09T04:15:23.004Z,78.80
2022-10-09T04:17:49.848Z,78.80
2022-10-09T04:20:16.957Z,78.90
2022-10-09T04:22:43.866Z,78.90
2022-10-09T04:25:11.056Z,79.00
2022-10-09T04:27:38.178Z,79.10
2022-10-09T04:30:06.574Z,79.20
2022-10-09T04:32:33.561Z,79.30
2022-10-09T04:35:00.641Z,79.30
2022-10-09T04:37:27.803Z,79.30
2022-10-09T04:39:54.813Z,79.30
2022-10-09T04:42:21.790Z,79.30
2022-10-09T04:44:48.803Z,79.40
2022-10-09T04:47:15.970Z,79.40
2022-10-09T04:49:42.851Z,79.30
2022-10-09T04:52:09.573Z,79.40
2022-10-09T04:54:36.438Z,79.40
2022-10-09T04:57:03.509Z,79.40
2022-10-09T04:59:30.481Z,79.40
2022-10-09T05:01:57.457Z,79.50
2022-10-09T05:04:24.683Z,79.40
2022-10-09T05:06:51.756Z,79.40
2022-10-09T05:09:19.348Z,79.50
2022-10-09T05:11:47.581Z,79.40
2022-10-09T05:14:14.522Z,79.50
2022-10-09T05:17:08.523Z,79.50
2022-10-09T05:19:28.406Z,79.50
2022-10-09T05:21:55.315Z,79.60
2022-10-09T05:24:22.269Z,79.60
2022-10-09T05:26:49.013Z,79.70
2022-10-09T05:29:16.319Z,79.70
2022-10-09T05:31:49.112Z,79.70
2022-10-09T05:34:16.793Z,79.70
2022-10-09T05:36:44.106Z,79.70
2022-10-09T05:39:11.393Z,79.70
2022-10-09T05:41:38.547Z,79.70
2022-10-09T05:44:05.695Z,79.80
2022-10-09T05:46:33.936Z,80.00
2022-10-09T05:49:08.068Z,79.70
2022-10-09T05:51:40.083Z,79.60
2022-10-09T05:54:07.202Z,79.70
2022-10-09T05:56:36.107Z,79.70
2022-10-09T05:59:06.399Z,79.70
2022-10-09T06:01:36.602Z,79.70
2022-10-09T06:04:06.308Z,79.70
2022-10-09T06:06:37.443Z,79.70
2022-10-09T06:09:05.241Z,79.60
2022-10-09T06:11:34.629Z,79.60
2022-10-09T06:14:03.747Z,79.60
2022-10-09T06:16:33.362Z,79.60
2022-10-09T06:19:00.999Z,79.60
2022-10-09T06:21:28.663Z,79.60
2022-10-09T06:23:59.037Z,79.70
2022-10-09T06:26:30.437Z,79.70
2022-10-09T06:28:59.548Z,79.70
2022-10-09T06:31:29.175Z,79.70
2022-10-09T06:33:58.053Z,79.70
2022-10-09T06:36:28.200Z,79.80
2022-10-09T06:38:55.306Z,79.80
2022-10-09T06:41:25.606Z,79.60
2022-10-09T06:43:58.221Z,79.50
2022-10-09T06:46:34.055Z,79.50
2022-10-09T06:49:01.513Z,79.40
2022-10-09T06:51:29.564Z,79.40
2022-10-09T06:53:59.337Z,79.30
2022-10-09T06:56:28.311Z,79.40
2022-10-09T06:58:55.468Z,79.30
2022-10-09T07:01:27.356Z,79.30
2022-10-09T07:04:00.095Z,79.30
2022-10-09T07:06:30.110Z,79.20
2022-10-09T07:09:12.528Z,79.20
2022-10-09T07:11:49.379Z,79.30
2022-10-09T07:14:17.393Z,79.30
2022-10-09T07:16:45.879Z,79.30
2022-10-09T07:19:14.681Z,79.30
2022-10-09T07:21:44.482Z,79.40
2022-10-09T07:24:13.167Z,79.40
2022-10-09T07:26:43.748Z,79.60
2022-10-09T07:29:13.148Z,79.60
2022-10-09T07:31:40.167Z,79.60
2022-10-09T07:34:07.910Z,79.70
2022-10-09T07:36:35.127Z,79.70
2022-10-09T07:39:03.812Z,79.90
2022-10-09T07:41:31.192Z,80.30
2022-10-09T07:43:58.843Z,80.30
2022-10-09T07:46:32.942Z,80.40
2022-10-09T07:49:01.437Z,80.70
2022-10-09T07:51:29.682Z,80.80
2022-10-09T07:53:57.834Z,80.80
2022-10-09T07:56:29.002Z,80.80
2022-10-09T07:59:01.877Z,80.70
2022-10-09T08:01:30.664Z,80.80
2022-10-09T08:03:58.659Z,80.90
2022-10-09T08:06:25.942Z,80.90
2022-10-09T08:08:54.762Z,81.00
2022-10-09T08:11:23.726Z,81.00
2022-10-09T08:13:52.046Z,81.20
2022-10-09T08:16:20.623Z,81.20
2022-10-09T08:18:48.149Z,81.30
2022-10-09T08:21:18.642Z,81.40
2022-10-09T08:23:46.003Z,81.40
2022-10-09T08:26:19.151Z,81.50
2022-10-09T08:29:00.389Z,81.50
2022-10-09T08:31:28.622Z,81.60
2022-10-09T08:33:58.203Z,81.60
2022-10-09T08:36:26.209Z,81.60
2022-10-09T08:38:53.124Z,81.80
2022-10-09T08:41:23.265Z,81.90
2022-10-09T08:43:56.261Z,81.80
2022-10-09T08:46:30.847Z,81.80
2022-10-09T08:49:00.237Z,81.80
2022-10-09T08:51:33.441Z,82.00
2022-10-09T08:54:23.929Z,82.00
2022-10-09T08:56:52.533Z,82.00
2022-10-09T08:59:19.772Z,82.10
2022-10-09T09:02:03.887Z,82.30
2022-10-09T09:04:52.422Z,82.30
2022-10-09T09:07:40.838Z,82.30
2022-10-09T09:10:21.918Z,82.40
2022-10-09T09:12:52.163Z,82.40
2022-10-09T09:15:55.620Z,82.60
2022-10-09T09:18:43.125Z,82.60
2022-10-09T09:21:32.373Z,82.70
2022-10-09T09:24:03.069Z,83.60
2022-10-09T09:26:30.353Z,82.90
2022-10-09T09:29:01.951Z,82.70
2022-10-09T09:31:36.800Z,82.60
2022-10-09T09:34:22.820Z,82.70
2022-10-09T09:36:57.229Z,82.70
2022-10-09T09:42:20.048Z,83.00
2022-10-09T09:45:00.345Z,83.00
2022-10-09T09:47:36.211Z,82.90
2022-10-09T09:50:05.474Z,82.90
2022-10-09T09:52:37.377Z,83.00
2022-10-09T09:55:05.323Z,82.90
2022-10-09T09:57:39.516Z,83.00
2022-10-09T10:00:17.044Z,83.40
2022-10-09T10:02:44.288Z,83.40
2022-10-09T10:05:35.832Z,83.30
2022-10-09T10:09:02.788Z,83.20
2022-10-09T10:11:45.403Z,83.30
2022-10-09T10:14:17.182Z,83.50
2022-10-09T10:16:48.045Z,83.60
2022-10-09T10:19:24.636Z,83.40
2022-10-09T10:22:03.951Z,83.40
2022-10-09T10:24:43.128Z,83.40
2022-10-09T10:27:34.032Z,83.50
2022-10-09T10:30:05.126Z,83.50
2022-10-09T10:32:42.672Z,83.50
2022-10-09T10:35:21.065Z,83.30
2022-10-09T10:38:01.826Z,83.20
2022-10-09T10:40:33.626Z,83.00
2022-10-09T10:43:09.895Z,83.30
2022-10-09T10:46:13.161Z,83.00
2022-10-09T10:48:47.211Z,82.80
2022-10-09T10:51:27.241Z,83.10
2022-10-09T10:54:03.652Z,83.20
2022-10-09T10:57:07.318Z,83.10
2022-10-09T10:59:39.829Z,82.80
2022-10-09T11:02:10.128Z,83.00
2022-10-09T11:05:01.282Z,83.10
2022-10-09T11:07:44.577Z,82.80
2022-10-09T11:10:27.705Z,82.70
2022-10-09T11:13:00.894Z,82.80
2022-10-09T11:15:37.840Z,82.90
2022-10-09T11:18:43.590Z,83.00
2022-10-09T11:21:45.704Z,83.00
2022-10-09T11:24:31.537Z,83.00
2022-10-09T11:27:13.484Z,83.00
2022-10-09T11:29:48.223Z,83.00
2022-10-09T11:32:23.122Z,83.10
2022-10-09T11:35:00.356Z,83.20
2022-10-09T11:37:35.171Z,83.00
2022-10-09T11:40:22.089Z,83.00
2022-10-09T11:43:00.775Z,82.50
2022-10-09T11:45:43.030Z,82.20
2022-10-09T11:48:27.865Z,82.30
2022-10-09T11:51:27.088Z,82.30
2022-10-09T11:53:55.226Z,82.40
2022-10-09T11:56:32.242Z,82.10
2022-10-09T11:59:07.244Z,82.00
2022-10-09T12:01:44.437Z,82.10
2022-10-09T12:04:20.832Z,82.00
2022-10-09T12:07:03.795Z,81.90
2022-10-09T12:09:43.467Z,81.70
2022-10-09T12:12:16.937Z,81.50
2022-10-09T12:14:46.974Z,81.40
2022-10-09T12:17:23.348Z,81.20
2022-10-09T12:20:03.992Z,81.10
2022-10-09T12:22:41.553Z,81.20
2022-10-09T12:25:30.793Z,81.50
2022-10-09T12:28:00.367Z,81.50
2022-10-09T12:30:36.719Z,81.60
2022-10-09T12:33:22.672Z,81.40
2022-10-09T12:36:06.690Z,81.30
2022-10-09T12:38:33.800Z,81.50
2022-10-09T12:41:07.132Z,81.50
2022-10-09T12:43:35.074Z,81.30
2022-10-09T12:46:02.803Z,81.20
2022-10-09T12:48:35.889Z,81.40
2022-10-09T12:51:02.920Z,81.50
2022-10-09T12:53:30.542Z,81.60
2022-10-09T12:56:00.838Z,81.50
2022-10-09T12:58:31.645Z,81.50
2022-10-09T13:01:02.125Z,81.70
2022-10-09T13:03:44.111Z,81.60
2022-10-09T13:06:17.206Z,81.60
2022-10-09T13:08:45.707Z,81.70
2022-10-09T13:11:32.828Z,81.80
2022-10-09T13:14:00.299Z,81.60
2022-10-09T13:16:38.216Z,81.70
2022-10-09T13:19:35.234Z,81.50
2022-10-09T13:22:05.323Z,81.50
2022-10-09T13:24:36.344Z,81.60
2022-10-09T13:27:05.009Z,81.10
2022-10-09T13:29:32.183Z,80.40
2022-10-09T13:31:59.304Z,80.50
2022-10-09T13:34:29.161Z,80.60
2022-10-09T13:36:57.079Z,80.40
2022-10-09T13:39:26.774Z,79.00
2022-10-09T13:41:55.665Z,78.90
2022-10-09T13:44:23.179Z,79.40
2022-10-09T13:46:50.321Z,79.40
2022-10-09T13:49:17.269Z,79.60
2022-10-09T13:51:44.290Z,79.80
2022-10-09T13:54:11.425Z,79.80
2022-10-09T13:56:38.541Z,79.70
2022-10-09T13:59:08.355Z,79.60
2022-10-09T14:01:35.568Z,79.50
2022-10-09T14:04:02.622Z,79.40
2022-10-09T14:06:29.727Z,79.60
2022-10-09T14:08:57.408Z,79.70
2022-10-09T14:11:24.532Z,79.60
2022-10-09T14:13:51.306Z,79.70
2022-10-09T14:16:18.200Z,79.80
2022-10-09T14:18:45.026Z,79.80
2022-10-09T14:21:15.552Z,79.70
2022-10-09T14:23:43.453Z,79.30
2022-10-09T14:26:10.811Z,79.00
2022-10-09T14:28:38.035Z,79.00
2022-10-09T14:31:06.642Z,78.80
2022-10-09T14:33:33.995Z,78.00
2022-10-09T14:36:13.027Z,78.20
2022-10-09T14:38:40.500Z,78.30
2022-10-09T14:41:09.190Z,78.50
2022-10-09T14:43:36.434Z,78.40
2022-10-09T14:46:05.606Z,78.60
2022-10-09T14:48:34.271Z,78.40
2022-10-09T14:51:06.623Z,78.30
2022-10-09T14:53:34.077Z,78.40
2022-10-09T14:56:05.760Z,78.60
2022-10-09T14:58:36.510Z,78.60
2022-10-09T15:01:03.786Z,78.60
2022-10-09T15:03:31.501Z,78.70
2022-10-09T15:06:03.411Z,78.60
2022-10-09T15:08:32.516Z,78.40
2022-10-09T15:10:59.586Z,78.20
2022-10-09T15:13:26.777Z,78.00
2022-10-09T15:16:02.329Z,78.00
2022-10-09T15:18:30.149Z,77.90
2022-10-09T15:20:59.627Z,78.00
2022-10-09T15:23:27.824Z,78.10
2022-10-09T15:25:58.418Z,78.40
2022-10-09T15:28:26.498Z,78.30
2022-10-09T15:30:57.416Z,78.00
2022-10-09T15:33:25.026Z,77.80
2022-10-09T15:35:53.360Z,77.80
2022-10-09T15:38:23.236Z,77.80
2022-10-09T15:40:52.552Z,77.90
2022-10-09T15:43:22.543Z,77.80
2022-10-09T15:45:50.235Z,77.50
2022-10-09T15:48:23.475Z,77.60
2022-10-09T15:50:53.555Z,77.50
2022-10-09T15:53:23.908Z,77.40
2022-10-09T15:55:52.938Z,77.40
2022-10-09T15:58:20.343Z,77.40
2022-10-09T16:00:49.948Z,77.20
2022-10-09T16:03:18.051Z,77.30
2022-10-09T16:05:51.148Z,77.20
2022-10-09T16:08:19.129Z,77.20
2022-10-09T16:10:49.447Z,77.20
2022-10-09T16:13:16.998Z,77.00
2022-10-09T16:15:48.207Z,77.00
2022-10-09T16:18:17.350Z,77.00
2022-10-09T16:20:44.822Z,77.00
2022-10-09T16:23:12.213Z,76.90
2022-10-09T16:25:42.197Z,76.90
2022-10-09T16:28:11.384Z,77.20
2022-10-09T16:30:43.598Z,77.10
2022-10-09T16:33:12.895Z,77.00
2022-10-09T16:35:40.623Z,77.00
2022-10-09T16:38:07.586Z,76.90
2022-10-09T16:41:01.002Z,77.00
2022-10-09T16:43:22.062Z,77.00
2022-10-09T16:45:48.995Z,77.00
2022-10-09T16:48:16.179Z,76.90
2022-10-09T16:50:43.682Z,76.90
2022-10-09T16:53:10.794Z,76.90
2022-10-09T16:55:37.821Z,76.90
2022-10-09T16:58:07.676Z,77.20
2022-10-09T17:00:37.216Z,77.00
2022-10-09T17:03:04.594Z,76.90
2022-10-09T17:05:31.436Z,76.80
2022-10-09T17:07:58.489Z,76.80
2022-10-09T17:10:25.369Z,76.70
2022-10-09T17:12:52.454Z,76.80
2022-10-09T17:15:19.171Z,76.70
2022-10-09T17:17:46.370Z,76.70
2022-10-09T17:20:13.465Z,76.70
2022-10-09T17:22:40.332Z,76.70
2022-10-09T17:25:07.793Z,76.70
2022-10-09T17:27:34.672Z,76.60
2022-10-09T17:30:01.449Z,76.60
2022-10-09T17:32:28.399Z,76.60
2022-10-09T17:34:55.786Z,76.60
2022-10-09T17:37:22.808Z,76.50
2022-10-09T17:39:52.238Z,76.40
2022-10-09T17:42:19.453Z,76.40
2022-10-09T17:44:46.307Z,76.50
2022-10-09T17:47:13.115Z,76.40
2022-10-09T17:49:39.886Z,76.40
2022-10-09T17:52:06.759Z,76.40
2022-10-09T17:54:33.844Z,76.50
2022-10-09T17:57:01.593Z,76.50
2022-10-09T17:59:28.835Z,76.40
2022-10-09T18:01:55.775Z,76.40
2022-10-09T18:04:22.848Z,76.40
2022-10-09T18:06:51.213Z,76.40
2022-10-09T18:09:18.212Z,76.50
2022-10-09T18:11:45.395Z,76.40
2022-10-09T18:14:12.604Z,76.40
2022-10-09T18:16:41.053Z,76.50
2022-10-09T18:19:18.570Z,76.40
2022-10-09T18:21:46.580Z,76.40
2022-10-09T18:24:14.694Z,76.40
2022-10-09T18:26:42.084Z,76.70
2022-10-09T18:29:09.491Z,76.50
2022-10-09T18:31:38.555Z,76.50
2022-10-09T18:34:05.872Z,76.40
2022-10-09T18:36:34.526Z,76.30
2022-10-09T18:39:13.353Z,76.20
2022-10-09T18:41:41.335Z,76.20
2022-10-09T18:44:12.776Z,76.20
2022-10-09T18:46:42.812Z,76.10
2022-10-09T18:49:13.627Z,76.10
2022-10-09T18:51:42.517Z,76.00
2022-10-09T18:54:17.941Z,76.00
2022-10-09T18:56:46.304Z,76.00
2022-10-09T18:59:21.694Z,76.00
2022-10-09T19:01:49.071Z,75.90
2022-10-09T19:04:16.097Z,76.20
2022-10-09T19:06:43.001Z,76.10
2022-10-09T19:09:10.240Z,76.00
2022-10-09T19:11:37.583Z,76.00
2022-10-09T19:14:05.525Z,76.00
2022-10-09T19:16:34.605Z,76.00
2022-10-09T19:19:01.837Z,76.10
2022-10-09T19:21:28.819Z,76.00
2022-10-09T19:23:55.811Z,76.00
2022-10-09T19:26:23.316Z,76.00
2022-10-09T19:28:50.310Z,76.00
2022-10-09T19:31:18.304Z,76.10
2022-10-09T19:33:45.009Z,76.00
2022-10-09T19:36:13.711Z,76.10
2022-10-09T19:38:41.540Z,76.10
2022-10-09T19:41:14.109Z,76.10
2022-10-09T19:43:41.932Z,76.00
2022-10-09T19:46:09.893Z,76.10
2022-10-09T19:48:37.430Z,76.10
2022-10-09T19:51:05.572Z,76.30
2022-10-09T19:53:33.067Z,77.20
2022-10-09T19:55:59.936Z,76.50
2022-10-09T19:58:26.883Z,76.40
2022-10-09T20:00:53.780Z,76.40
2022-10-09T20:03:20.791Z,76.50
2022-10-09T20:05:47.690Z,76.50
2022-10-09T20:08:15.131Z,76.50
2022-10-09T20:10:42.035Z,76.50
2022-10-09T20:13:08.991Z,76.60
2022-10-09T20:15:35.848Z,76.60
2022-10-09T20:18:02.910Z,76.60
2022-10-09T20:20:30.076Z,76.60
2022-10-09T20:22:59.957Z,76.60
2022-10-09T20:25:27.669Z,76.60
2022-10-09T20:27:54.688Z,76.60
2022-10-09T20:30:21.644Z,76.50
2022-10-09T20:32:49.415Z,76.80
2022-10-09T20:35:16.553Z,76.80
2022-10-09T20:37:43.577Z,76.70
2022-10-09T20:40:10.453Z,76.90
2022-10-09T20:42:37.318Z,76.90
2022-10-09T20:45:04.976Z,76.90
2022-10-09T20:47:32.011Z,76.90
2022-10-09T20:49:58.910Z,76.80
2022-10-09T20:52:26.112Z,76.80
2022-10-09T20:54:52.965Z,76.80
2022-10-09T20:57:23.808Z,76.80
2022-10-09T20:59:50.991Z,76.80
2022-10-09T21:02:18.016Z,76.90
2022-10-09T21:04:46.000Z,77.10
2022-10-09T21:07:12.875Z,77.20
2022-10-09T21:09:39.692Z,77.20
2022-10-09T21:12:07.034Z,77.40
2022-10-09T21:14:36.749Z,77.50
2022-10-09T21:17:03.828Z,77.50
2022-10-09T21:19:30.957Z,77.60
2022-10-09T21:21:57.927Z,77.40
2022-10-09T21:24:24.944Z,77.40
2022-10-09T21:26:51.613Z,77.40
2022-10-09T21:29:18.291Z,77.40
2022-10-09T21:31:45.035Z,77.50
2022-10-09T21:34:13.904Z,77.60
2022-10-09T21:37:08.982Z,77.50
2022-10-09T21:39:33.702Z,77.50
2022-10-09T21:42:00.401Z,77.60
2022-10-09T21:44:27.523Z,77.60
2022-10-09T21:46:54.304Z,77.60
2022-10-09T21:49:23.638Z,77.60
2022-10-09T21:51:50.708Z,77.60
2022-10-09T21:54:17.668Z,77.60
2022-10-09T21:56:44.543Z,77.60
2022-10-09T21:59:11.652Z,77.60
2022-10-09T22:01:38.373Z,77.70
2022-10-09T22:04:05.185Z,77.70
2022-10-09T22:06:31.852Z,78.60
2022-10-09T22:08:59.824Z,77.70
2022-10-09T22:11:27.045Z,77.70
2022-10-09T22:13:55.862Z,77.70
2022-10-09T22:16:23.041Z,77.70
2022-10-09T22:18:49.742Z,77.70
2022-10-09T22:21:17.210Z,77.70
2022-10-09T22:23:44.314Z,77.70
2022-10-09T22:26:14.094Z,77.80
2022-10-09T22:28:40.899Z,77.90
2022-10-09T22:31:21.193Z,78.00
2022-10-09T22:33:53.297Z,78.10
2022-10-09T22:36:22.278Z,78.10
2022-10-09T22:38:49.025Z,78.20
2022-10-09T22:41:20.670Z,78.30
2022-10-09T22:43:50.269Z,79.20
2022-10-09T22:46:19.339Z,78.40
2022-10-09T22:48:46.599Z,78.30
2022-10-09T22:51:16.649Z,78.30
2022-10-09T22:53:44.520Z,78.30
2022-10-09T22:56:20.367Z,78.30
2022-10-09T22:58:48.197Z,78.40
2022-10-09T23:01:36.721Z,78.40
2022-10-09T23:04:10.402Z,78.50
2022-10-09T23:06:38.250Z,78.50
2022-10-09T23:09:05.876Z,78.60
2022-10-09T23:11:34.043Z,78.50
2022-10-09T23:14:01.565Z,78.60
2022-10-09T23:16:29.695Z,78.60
2022-10-09T23:18:58.032Z,79.50
2022-10-09T23:21:25.623Z,78.50
2022-10-09T23:23:53.613Z,78.50
2022-10-09T23:26:23.068Z,78.50
2022-10-09T23:28:58.697Z,78.40
2022-10-09T23:31:26.287Z,78.40
2022-10-09T23:33:53.181Z,78.40
2022-10-09T23:36:22.619Z,78.30
2022-10-09T23:38:49.772Z,78.30
2022-10-09T23:41:19.952Z,78.30
2022-10-09T23:43:47.808Z,78.30
2022-10-09T23:46:21.587Z,78.40
2022-10-09T23:48:49.558Z,79.40
2022-10-09T23:51:18.218Z,78.50
2022-10-09T23:53:44.991Z,78.50
2022-10-09T23:56:18.108Z,78.50
2022-10-09T23:58:44.990Z,78.60
